Time;durP1;ratioP1;P1;durP2;ratioP2;P2;SDS_P1;SDS_P2;PMS_P1;PMS_P2;Temp;Humidity;BMP_temperature;BMP_pressure;BME280_temperature;BME280_humidity;BME280_pressure;Samples;Min_cycle;Max_cycle;Signal;HPM_P1;HPM_P2
2023/06/28 00:00:07;;;;;;;7.75;1.80;;;18.60;97.50;;;;;;5108336;27;47175;-66
2023/06/28 00:02:35;;;;;;;4.15;1.38;;;18.60;97.80;;;;;;5120620;27;45283;-66
2023/06/28 00:05:03;;;;;;;5.35;1.67;;;18.50;97.20;;;;;;5113124;27;45331;-66
2023/06/28 00:07:32;;;;;;;5.78;1.63;;;18.50;97.50;;;;;;5118621;27;45492;-66
2023/06/28 00:09:59;;;;;;;4.68;1.30;;;18.50;97.40;;;;;;5116495;27;46307;-64
2023/06/28 00:12:27;;;;;;;3.75;1.38;;;18.40;98.20;;;;;;5122789;27;45500;-65
2023/06/28 00:14:54;;;;;;;2.75;1.13;;;18.50;97.70;;;;;;5123506;27;45449;-65
2023/06/28 00:17:27;;;;;;;6.90;1.80;;;18.50;97.70;;;;;;5113675;27;45500;-65
2023/06/28 00:19:54;;;;;;;9.52;1.50;;;18.50;97.80;;;;;;5110695;27;45709;-65
2023/06/28 00:22:23;;;;;;;8.32;1.60;;;18.60;97.60;;;;;;5120841;27;45357;-65
2023/06/28 00:24:51;;;;;;;3.92;1.38;;;18.50;97.40;;;;;;5120071;27;45309;-65
2023/06/28 00:27:18;;;;;;;9.77;1.60;;;18.60;97.60;;;;;;5121633;27;45565;-66
2023/06/28 00:29:45;;;;;;;6.45;1.38;;;18.60;97.60;;;;;;5122411;27;46604;-65
2023/06/28 00:32:11;;;;;;;5.55;1.85;;;18.60;98.10;;;;;;5124203;27;45391;-66
2023/06/28 00:34:38;;;;;;;6.97;1.88;;;18.50;98.30;;;;;;5125193;27;45368;-65
2023/06/28 00:37:05;;;;;;;5.90;1.65;;;18.50;98.00;;;;;;5126062;27;45256;-65
2023/06/28 00:39:32;;;;;;;4.30;1.63;;;18.40;97.80;;;;;;5124904;27;49149;-65
2023/06/28 00:42:00;;;;;;;5.68;1.60;;;18.40;98.10;;;;;;5119968;27;45366;-66
2023/06/28 00:44:27;;;;;;;7.65;1.70;;;18.40;98.50;;;;;;5120896;27;45358;-66
2023/06/28 00:46:56;;;;;;;3.88;1.50;;;18.30;97.80;;;;;;5114345;27;45479;-65
2023/06/28 00:49:24;;;;;;;5.72;1.60;;;18.30;97.70;;;;;;5119593;27;47603;-65
2023/06/28 00:51:51;;;;;;;10.57;2.05;;;18.30;97.50;;;;;;5118322;27;45414;-66
2023/06/28 00:54:19;;;;;;;5.30;1.83;;;18.30;97.70;;;;;;5123588;27;45511;-65
2023/06/28 00:56:47;;;;;;;2.97;1.50;;;18.40;97.90;;;;;;5121615;27;45274;-66
2023/06/28 00:59:16;;;;;;;7.65;1.73;;;18.40;98.40;;;;;;5108990;27;47168;-65
2023/06/28 01:01:43;;;;;;;4.82;1.45;;;18.40;98.10;;;;;;5123498;27;45265;-65
2023/06/28 01:04:13;;;;;;;6.90;1.48;;;18.30;98.30;;;;;;5121572;27;45535;-66
2023/06/28 01:06:43;;;;;;;4.38;1.50;;;18.30;98.50;;;;;;5114712;27;45526;-65
2023/06/28 01:09:11;;;;;;;8.40;1.63;;;18.40;98.80;;;;;;5117330;27;45461;-66
2023/06/28 01:11:39;;;;;;;4.25;1.20;;;18.40;99.10;;;;;;5121047;27;45415;-65
2023/06/28 01:14:06;;;;;;;5.22;1.58;;;18.50;99.20;;;;;;5115150;27;45520;-65
2023/06/28 01:16:34;;;;;;;5.85;1.70;;;18.40;98.70;;;;;;5110809;27;45568;-65
2023/06/28 01:19:03;;;;;;;6.22;1.90;;;18.40;98.90;;;;;;5121979;27;46260;-65
2023/06/28 01:21:35;;;;;;;5.60;1.40;;;18.40;98.50;;;;;;5122551;27;45453;-65
2023/06/28 01:24:03;;;;;;;3.33;1.30;;;18.40;98.50;;;;;;5122433;27;45375;-67
2023/06/28 01:26:30;;;;;;;3.05;1.63;;;18.40;99.00;;;;;;5121328;27;45447;-65
2023/06/28 01:28:57;;;;;;;3.55;1.35;;;18.40;99.90;;;;;;5117649;27;48021;-65
2023/06/28 01:31:24;;;;;;;9.05;1.85;;;18.40;99.90;;;;;;5108338;27;45429;-65
2023/06/28 01:33:51;;;;;;;3.17;1.42;;;18.30;99.90;;;;;;5119186;27;45351;-65
2023/06/28 01:36:18;;;;;;;3.75;1.40;;;18.30;99.90;;;;;;5113693;27;45398;-65
2023/06/28 01:38:46;;;;;;;3.72;1.38;;;18.30;99.90;;;;;;5115116;27;46092;-65
2023/06/28 01:41:15;;;;;;;7.00;1.98;;;18.30;99.90;;;;;;5115948;27;45426;-66
2023/06/28 01:43:42;;;;;;;9.40;1.80;;;18.30;99.90;;;;;;5111917;27;45299;-65
2023/06/28 01:46:09;;;;;;;5.03;1.48;;;18.30;99.20;;;;;;5114562;27;45352;-65
2023/06/28 01:48:36;;;;;;;8.60;1.80;;;18.40;99.50;;;;;;5120822;27;45481;-65
2023/06/28 01:51:03;;;;;;;3.85;1.60;;;18.40;99.30;;;;;;5114885;27;45304;-65
2023/06/28 01:53:30;;;;;;;4.68;1.83;;;18.40;99.70;;;;;;5123796;27;45574;-66
2023/06/28 01:55:57;;;;;;;3.95;1.45;;;18.40;99.10;;;;;;5124655;27;45368;-65
2023/06/28 01:58:25;;;;;;;4.10;1.45;;;18.40;99.00;;;;;;5123685;27;46948;-65
2023/06/28 02:00:52;;;;;;;6.13;1.70;;;18.40;99.70;;;;;;5124335;27;46458;-65
2023/06/28 02:03:19;;;;;;;7.55;2.10;;;18.40;99.40;;;;;;5122591;27;45350;-65
2023/06/28 02:05:46;;;;;;;4.45;1.70;;;18.30;99.20;;;;;;5123793;27;45216;-65
2023/06/28 02:08:12;;;;;;;3.65;1.50;;;18.30;99.60;;;;;;5123673;27;47308;-66
2023/06/28 02:10:39;;;;;;;9.32;2.45;;;18.40;99.40;;;;;;5122766;27;45257;-65
2023/06/28 02:13:06;;;;;;;10.68;2.20;;;18.40;99.40;;;;;;5123753;27;45252;-65
2023/06/28 02:15:35;;;;;;;5.43;1.90;;;18.40;99.50;;;;;;5123909;27;45756;-66
2023/06/28 02:18:02;;;;;;;8.88;2.05;;;18.30;99.00;;;;;;5123177;27;46630;-66
2023/06/28 02:20:29;;;;;;;4.70;1.50;;;18.30;99.10;;;;;;5122414;27;45259;-65
2023/06/28 02:22:55;;;;;;;3.95;1.73;;;18.40;99.60;;;;;;5122158;27;45365;-65
2023/06/28 02:25:22;;;;;;;3.00;1.85;;;18.30;99.40;;;;;;5111946;27;45575;-66
2023/06/28 02:27:49;;;;;;;3.53;1.45;;;18.40;99.30;;;;;;5122476;27;48472;-65
2023/06/28 02:30:15;;;;;;;4.70;1.75;;;18.40;99.20;;;;;;5113200;27;45269;-65
2023/06/28 02:32:43;;;;;;;10.60;2.17;;;18.40;99.20;;;;;;5110846;27;45267;-65
2023/06/28 02:35:10;;;;;;;6.15;2.35;;;18.40;99.20;;;;;;5108538;27;45426;-65
2023/06/28 02:37:37;;;;;;;6.22;1.85;;;18.50;99.10;;;;;;5122400;27;46093;-65
2023/06/28 02:40:05;;;;;;;5.03;2.13;;;18.50;99.70;;;;;;5121659;27;45486;-65
2023/06/28 02:42:32;;;;;;;6.97;1.67;;;18.50;99.00;;;;;;5111117;27;45404;-66
2023/06/28 02:44:59;;;;;;;4.85;1.88;;;18.70;99.60;;;;;;5117632;27;45553;-66
2023/06/28 02:47:25;;;;;;;5.18;2.05;;;18.60;99.90;;;;;;5118417;27;46403;-65
2023/06/28 02:49:53;;;;;;;9.43;2.30;;;18.50;99.90;;;;;;5115589;27;45409;-66
2023/06/28 02:52:20;;;;;;;5.60;1.70;;;18.50;99.90;;;;;;5112611;27;45406;-67
2023/06/28 02:54:47;;;;;;;4.20;1.67;;;18.50;99.90;;;;;;5123019;27;45382;-66
2023/06/28 02:57:14;;;;;;;3.35;1.60;;;18.60;99.90;;;;;;5121294;27;47098;-66
2023/06/28 02:59:40;;;;;;;6.13;1.65;;;18.60;99.90;;;;;;5122074;27;45251;-65
2023/06/28 03:02:09;;;;;;;6.85;1.60;;;18.60;99.90;;;;;;5121499;27;45264;-65
2023/06/28 03:04:39;;;;;;;4.20;1.80;;;18.50;99.90;;;;;;5114393;27;45619;-66
2023/06/28 03:07:12;;;;;;;4.13;1.70;;;18.40;99.90;;;;;;5113275;27;48759;-65
2023/06/28 03:09:39;;;;;;;3.30;1.42;;;18.50;99.90;;;;;;5120578;27;45436;-66
2023/06/28 03:12:06;;;;;;;6.00;1.65;;;18.40;99.90;;;;;;5117484;27;45430;-66
2023/06/28 03:14:34;;;;;;;4.93;1.70;;;18.40;99.90;;;;;;5123529;27;45540;-65
2023/06/28 03:17:01;;;;;;;7.10;2.33;;;18.40;99.90;;;;;;5122235;27;46595;-65
2023/06/28 03:19:28;;;;;;;4.28;1.48;;;18.40;99.90;;;;;;5121477;27;45485;-65
2023/06/28 03:21:54;;;;;;;5.00;1.70;;;18.40;99.90;;;;;;5121141;27;45335;-65
2023/06/28 03:24:23;;;;;;;6.82;1.98;;;18.40;99.90;;;;;;5121100;27;45388;-65
2023/06/28 03:26:49;;;;;;;6.93;1.70;;;18.40;99.90;;;;;;5121120;27;47187;-65
2023/06/28 03:29:16;;;;;;;5.97;1.80;;;18.40;99.90;;;;;;5113002;27;45403;-65
2023/06/28 03:31:43;;;;;;;4.78;1.73;;;18.40;99.90;;;;;;5106051;27;45525;-65
2023/06/28 03:34:10;;;;;;;7.75;2.15;;;18.40;99.90;;;;;;5114437;27;45512;-67
2023/06/28 03:36:36;;;;;;;3.58;1.55;;;18.40;99.90;;;;;;5117657;27;45618;-66
2023/06/28 03:39:03;;;;;;;9.77;1.95;;;18.40;99.90;;;;;;5113409;27;45485;-66
2023/06/28 03:41:31;;;;;;;9.73;1.83;;;18.40;99.90;;;;;;5113881;27;45514;-65
2023/06/28 03:43:58;;;;;;;5.43;2.17;;;18.40;99.90;;;;;;5113274;27;45291;-66
2023/06/28 03:46:25;;;;;;;4.53;1.75;;;18.50;99.90;;;;;;5113206;27;47147;-66
2023/06/28 03:48:52;;;;;;;3.35;2.05;;;18.60;99.90;;;;;;5114051;27;45340;-65
2023/06/28 03:51:18;;;;;;;7.20;2.67;;;18.60;99.90;;;;;;5114060;27;45367;-65
2023/06/28 03:53:45;;;;;;;6.35;1.80;;;18.50;99.90;;;;;;5117752;27;45422;-66
2023/06/28 03:56:12;;;;;;;9.13;2.17;;;18.60;99.90;;;;;;5117208;27;46428;-65
2023/06/28 03:58:40;;;;;;;7.32;1.85;;;18.50;99.90;;;;;;5112729;27;45401;-66
2023/06/28 04:01:07;;;;;;;4.28;1.80;;;18.60;99.90;;;;;;5120921;27;45330;-65
2023/06/28 04:03:34;;;;;;;7.68;2.05;;;18.50;99.90;;;;;;5110489;27;45443;-65
2023/06/28 04:06:01;;;;;;;4.65;1.83;;;18.60;99.90;;;;;;5106809;27;45312;-65
2023/06/28 04:08:27;;;;;;;12.02;2.00;;;18.60;99.90;;;;;;5114689;27;45237;-66
2023/06/28 04:10:56;;;;;;;8.85;2.20;;;18.60;99.90;;;;;;5122890;27;45495;-65
2023/06/28 04:13:25;;;;;;;10.60;2.50;;;18.70;99.90;;;;;;5114565;27;45429;-65
2023/06/28 04:15:54;;;;;;;9.95;2.60;;;18.70;99.90;;;;;;5118441;27;46158;-66
2023/06/28 04:18:20;;;;;;;9.70;2.65;;;18.60;99.90;;;;;;5116598;27;45505;-66
2023/06/28 04:20:47;;;;;;;6.88;2.28;;;18.60;99.90;;;;;;5114581;27;45451;-66
2023/06/28 04:23:14;;;;;;;14.52;2.00;;;18.60;99.90;;;;;;5121266;27;45638;-65
2023/06/28 04:25:41;;;;;;;12.68;2.60;;;18.60;99.90;;;;;;5120219;27;46707;-65
2023/06/28 04:28:08;;;;;;;12.45;2.33;;;18.60;99.90;;;;;;5119303;27;45224;-65
2023/06/28 04:30:34;;;;;;;7.93;2.35;;;18.60;99.90;;;;;;5115649;27;45346;-65
2023/06/28 04:33:04;;;;;;;7.65;2.05;;;18.60;99.90;;;;;;5111605;27;45573;-66
2023/06/28 04:35:34;;;;;;;6.30;1.95;;;18.60;99.90;;;;;;5113453;27;46571;-66
2023/06/28 04:38:03;;;;;;;6.60;1.63;;;18.60;99.90;;;;;;5105727;27;45320;-66
2023/06/28 04:40:30;;;;;;;10.80;2.40;;;18.60;99.90;;;;;;5111103;27;45350;-65
2023/06/28 04:42:56;;;;;;;10.20;2.67;;;18.60;99.90;;;;;;5124387;27;45437;-66
2023/06/28 04:45:35;;;;;;;14.43;2.58;;;18.60;99.90;;;;;;5124039;27;47519;-66
2023/06/28 04:48:03;;;;;;;8.68;2.50;;;18.50;99.90;;;;;;5113716;27;45354;-65
2023/06/28 04:50:30;;;;;;;8.30;2.10;;;18.50;99.90;;;;;;5123516;27;45378;-66
2023/06/28 04:52:57;;;;;;;11.02;2.55;;;18.70;99.90;;;;;;5124061;27;45419;-66
2023/06/28 04:55:24;;;;;;;13.65;2.70;;;17.30;99.90;;;;;;5107176;27;46447;-66
2023/06/28 04:57:51;;;;;;;9.18;2.47;;;16.60;99.90;;;;;;5108928;27;45299;-67
2023/06/28 05:00:18;;;;;;;6.95;2.20;;;16.30;99.90;;;;;;5120765;27;45517;-64
2023/06/28 05:02:45;;;;;;;11.68;2.80;;;16.10;99.90;;;;;;5123417;27;45669;-65
2023/06/28 05:05:14;;;;;;;15.68;3.17;;;16.00;99.90;;;;;;5125025;27;46473;-66
2023/06/28 05:07:41;;;;;;;13.35;2.78;;;16.10;99.90;;;;;;5123773;27;45282;-65
2023/06/28 05:10:08;;;;;;;17.92;3.03;;;16.10;99.90;;;;;;5123226;27;45383;-65
2023/06/28 05:12:35;;;;;;;9.50;2.55;;;15.80;99.90;;;;;;5117913;27;45252;-66
2023/06/28 05:15:02;;;;;;;10.75;3.65;;;15.80;99.90;;;;;;5114773;27;46067;-67
2023/06/28 05:17:29;;;;;;;10.57;3.00;;;16.10;99.90;;;;;;5118580;27;45485;-67
2023/06/28 05:19:55;;;;;;;10.65;2.85;;;16.30;99.90;;;;;;5115009;27;45518;-68
2023/06/28 05:22:26;;;;;;;12.05;2.83;;;16.30;99.90;;;;;;5110331;27;45299;-66
2023/06/28 05:24:52;;;;;;;10.63;3.30;;;16.40;99.90;;;;;;5116295;27;45508;-67
2023/06/28 05:27:20;;;;;;;17.17;3.72;;;16.40;99.90;;;;;;5119977;27;45523;-67
2023/06/28 05:29:47;;;;;;;24.55;3.15;;;16.50;99.90;;;;;;5121229;27;45296;-66
2023/06/28 05:32:14;;;;;;;12.00;2.75;;;16.40;99.90;;;;;;5119755;27;45545;-66
2023/06/28 05:34:40;;;;;;;5.35;2.45;;;16.50;99.90;;;;;;5118663;27;47712;-66
2023/06/28 05:37:07;;;;;;;14.02;2.95;;;16.40;99.90;;;;;;5123651;27;45405;-65
2023/06/28 05:39:36;;;;;;;8.75;2.85;;;16.50;99.90;;;;;;5119099;27;45404;-66
2023/06/28 05:42:02;;;;;;;10.02;2.58;;;16.60;99.90;;;;;;5123972;27;45296;-66
2023/06/28 05:44:29;;;;;;;9.32;2.95;;;16.60;99.90;;;;;;5117451;27;48035;-65
2023/06/28 05:46:56;;;;;;;12.27;2.50;;;16.50;99.90;;;;;;5108840;27;45296;-66
2023/06/28 05:49:23;;;;;;;10.32;3.53;;;16.50;99.90;;;;;;5115058;27;45305;-68
2023/06/28 05:51:49;;;;;;;14.05;3.20;;;16.50;99.90;;;;;;5116196;27;45348;-67
2023/06/28 05:54:16;;;;;;;10.98;2.42;;;16.50;99.90;;;;;;5122631;27;45264;-65
2023/06/28 05:56:45;;;;;;;16.73;3.15;;;16.50;99.90;;;;;;5112995;27;45419;-69
2023/06/28 05:59:12;;;;;;;17.52;2.88;;;16.50;99.90;;;;;;5112105;27;45540;-67
2023/06/28 06:01:38;;;;;;;14.80;2.55;;;16.50;99.90;;;;;;5120661;27;45334;-66
2023/06/28 06:04:05;;;;;;;14.50;2.75;;;16.60;99.90;;;;;;5110358;27;48051;-66
2023/06/28 06:06:32;;;;;;;12.25;2.58;;;16.60;99.90;;;;;;5112097;27;45415;-67
2023/06/28 06:08:59;;;;;;;11.05;3.00;;;16.50;99.90;;;;;;5106593;27;45270;-66
2023/06/28 06:11:25;;;;;;;15.32;2.78;;;16.40;99.90;;;;;;5119590;27;45544;-67
2023/06/28 06:13:54;;;;;;;17.38;3.42;;;16.50;99.90;;;;;;5120339;27;45268;-68
2023/06/28 06:16:20;;;;;;;11.73;3.05;;;16.50;99.90;;;;;;5123623;27;45327;-66
2023/06/28 06:18:47;;;;;;;11.98;3.17;;;16.50;99.90;;;;;;5106370;27;45289;-66
2023/06/28 06:21:14;;;;;;;12.50;2.63;;;16.50;99.90;;;;;;5115464;27;45415;-66
2023/06/28 06:23:41;;;;;;;14.20;3.13;;;16.60;99.90;;;;;;5110921;27;47170;-65
2023/06/28 06:26:08;;;;;;;8.68;2.60;;;16.60;99.90;;;;;;5107996;27;45426;-66
2023/06/28 06:28:34;;;;;;;8.90;2.50;;;16.60;99.90;;;;;;5118915;27;45485;-66
2023/06/28 06:31:03;;;;;;;8.70;2.22;;;16.70;99.90;;;;;;5104944;27;45401;-67
2023/06/28 06:33:29;;;;;;;11.43;2.42;;;16.70;99.90;;;;;;5117594;27;48085;-66
2023/06/28 06:35:56;;;;;;;16.30;2.80;;;16.80;99.90;;;;;;5103056;27;45353;-66
2023/06/28 06:38:23;;;;;;;12.15;2.58;;;16.90;99.90;;;;;;5105706;27;45292;-66
2023/06/28 06:40:50;;;;;;;5.72;2.35;;;16.80;99.90;;;;;;5116597;27;45548;-67
2023/06/28 06:43:16;;;;;;;3.85;1.88;;;17.20;99.90;;;;;;5123028;27;46087;-67
2023/06/28 06:45:43;;;;;;;7.85;2.15;;;18.50;99.90;;;;;;5116749;27;45552;-67
2023/06/28 06:48:11;;;;;;;9.57;1.92;;;19.20;99.90;;;;;;5110727;27;45340;-67
2023/06/28 06:50:38;;;;;;;5.75;2.10;;;19.50;99.90;;;;;;5110995;27;45335;-64
2023/06/28 06:53:05;;;;;;;5.43;1.65;;;19.60;99.90;;;;;;5103319;27;46605;-65
2023/06/28 06:55:34;;;;;;;7.40;2.03;;;19.80;99.90;;;;;;5108328;27;45943;-65
2023/06/28 06:58:00;;;;;;;4.95;1.88;;;19.80;99.90;;;;;;5123342;27;45269;-65
2023/06/28 07:00:27;;;;;;;4.18;1.80;;;19.90;99.90;;;;;;5118219;27;45490;-66
2023/06/28 07:02:54;;;;;;;5.32;1.65;;;19.90;99.90;;;;;;5115518;27;46707;-66
2023/06/28 07:05:22;;;;;;;10.88;2.10;;;19.90;99.90;;;;;;5113789;27;45939;-65
2023/06/28 07:07:49;;;;;;;4.30;1.75;;;20.00;99.90;;;;;;5111767;27;45334;-66
2023/06/28 07:10:15;;;;;;;7.00;1.63;;;20.10;99.90;;;;;;5119721;27;45505;-66
2023/06/28 07:12:42;;;;;;;5.22;1.95;;;20.10;99.90;;;;;;5115713;27;48064;-65
2023/06/28 07:15:10;;;;;;;8.45;2.10;;;20.10;99.90;;;;;;5119978;27;45467;-65
2023/06/28 07:17:37;;;;;;;2.28;1.35;;;20.20;99.90;;;;;;5122355;27;45267;-65
2023/06/28 07:20:05;;;;;;;5.72;1.70;;;20.20;99.90;;;;;;5109907;27;45391;-64
2023/06/28 07:22:33;;;;;;;5.47;1.70;;;20.40;99.90;;;;;;5110173;27;47572;-65
2023/06/28 07:25:02;;;;;;;5.40;1.55;;;20.40;99.90;;;;;;5109929;27;45236;-64
2023/06/28 07:27:29;;;;;;;5.03;1.50;;;20.40;99.90;;;;;;5112645;27;45262;-65
2023/06/28 07:29:56;;;;;;;3.28;1.33;;;20.40;99.90;;;;;;5110215;27;45379;-65
2023/06/28 07:32:26;;;;;;;10.23;2.10;;;20.40;99.90;;;;;;5115661;27;46301;-65
2023/06/28 07:34:53;;;;;;;5.03;1.75;;;20.40;99.90;;;;;;5114376;27;45407;-65
2023/06/28 07:37:19;;;;;;;5.22;1.50;;;20.50;99.90;;;;;;5105598;27;45359;-67
2023/06/28 07:39:47;;;;;;;3.92;1.92;;;20.60;99.90;;;;;;5105114;27;45350;-66
2023/06/28 07:42:14;;;;;;;3.08;1.25;;;20.50;99.90;;;;;;5107821;27;45564;-65
2023/06/28 07:44:41;;;;;;;5.07;1.73;;;20.60;99.90;;;;;;5124959;27;45244;-67
2023/06/28 07:47:08;;;;;;;6.93;1.45;;;20.60;99.90;;;;;;5124575;27;45257;-65
2023/06/28 07:49:35;;;;;;;4.30;1.42;;;20.40;99.90;;;;;;5125317;27;45436;-66
2023/06/28 07:52:01;;;;;;;3.65;1.50;;;20.50;99.90;;;;;;5125839;27;45516;-65
2023/06/28 07:54:28;;;;;;;7.45;1.88;;;20.50;99.90;;;;;;5121731;27;45368;-65
2023/06/28 07:56:56;;;;;;;5.32;1.38;;;20.60;99.90;;;;;;5112160;27;45353;-65
2023/06/28 07:59:23;;;;;;;5.63;1.75;;;20.60;99.90;;;;;;5105624;27;45474;-65
2023/06/28 08:01:50;;;;;;;8.75;1.45;;;20.60;99.90;;;;;;5107494;27;46417;-65
2023/06/28 08:04:17;;;;;;;5.50;1.15;;;20.70;99.90;;;;;;5111306;27;45388;-65
2023/06/28 08:06:44;;;;;;;6.45;1.67;;;20.70;99.90;;;;;;5122314;27;45459;-65
2023/06/28 08:09:11;;;;;;;7.05;1.42;;;20.70;99.90;;;;;;5125485;27;45328;-65
2023/06/28 08:11:38;;;;;;;2.85;1.23;;;20.70;99.90;;;;;;5118589;27;47653;-65
2023/06/28 08:14:07;;;;;;;3.83;1.50;;;20.70;98.00;;;;;;5112605;27;45813;-65
2023/06/28 08:16:34;;;;;;;3.85;1.05;;;20.80;98.60;;;;;;5111515;27;45281;-65
2023/06/28 08:19:01;;;;;;;5.20;1.80;;;20.90;98.40;;;;;;5105343;27;45410;-66
2023/06/28 08:21:28;;;;;;;4.25;1.38;;;20.90;98.10;;;;;;5111993;27;48020;-65
2023/06/28 08:23:54;;;;;;;3.60;1.38;;;21.00;98.20;;;;;;5109593;27;45480;-65
2023/06/28 08:26:21;;;;;;;5.80;1.38;;;21.00;97.60;;;;;;5123281;27;45429;-65
2023/06/28 08:28:48;;;;;;;7.53;1.45;;;21.00;97.50;;;;;;5111038;27;45557;-66
2023/06/28 08:31:16;;;;;;;6.82;1.42;;;21.00;97.30;;;;;;5104982;27;47083;-65
2023/06/28 08:33:43;;;;;;;6.07;1.55;;;21.10;97.40;;;;;;5108477;27;45438;-65
2023/06/28 08:36:09;;;;;;;5.55;1.63;;;21.10;96.80;;;;;;5120846;27;45402;-66
2023/06/28 08:38:36;;;;;;;2.70;1.20;;;21.00;96.70;;;;;;5118453;27;45588;-65
2023/06/28 08:41:03;;;;;;;8.32;1.85;;;21.00;96.60;;;;;;5112479;27;46400;-65
2023/06/28 08:43:31;;;;;;;6.50;1.63;;;20.90;95.80;;;;;;5121821;27;45463;-65
2023/06/28 08:45:57;;;;;;;9.70;1.75;;;20.90;95.80;;;;;;5108945;27;45305;-65
2023/06/28 08:48:26;;;;;;;3.78;1.52;;;21.00;95.90;;;;;;5119735;27;45393;-65
2023/06/28 08:50:54;;;;;;;5.47;1.40;;;21.00;96.30;;;;;;5116082;27;46562;-65
2023/06/28 08:53:23;;;;;;;5.30;1.65;;;21.00;96.40;;;;;;5122758;27;46093;-65
2023/06/28 08:55:50;;;;;;;6.35;1.55;;;21.00;96.80;;;;;;5116668;27;45470;-66
2023/06/28 08:58:17;;;;;;;6.07;1.67;;;21.10;97.20;;;;;;5118353;27;45317;-66
2023/06/28 09:00:45;;;;;;;4.53;1.50;;;21.10;96.50;;;;;;5122321;27;48273;-66
2023/06/28 09:03:14;;;;;;;4.05;1.23;;;21.00;96.30;;;;;;5125313;27;45370;-66
2023/06/28 09:05:44;;;;;;;3.80;1.48;;;21.00;95.90;;;;;;5121724;27;45367;-66
2023/06/28 09:08:11;;;;;;;2.53;1.20;;;21.00;95.40;;;;;;5121427;27;45426;-67
2023/06/28 09:10:40;;;;;;;3.85;1.75;;;21.00;95.90;;;;;;5104788;27;46593;-66
2023/06/28 09:13:07;;;;;;;3.50;1.17;;;21.00;95.10;;;;;;5115753;27;45450;-66
2023/06/28 09:15:35;;;;;;;5.30;1.80;;;21.00;96.10;;;;;;5113453;27;45380;-67
2023/06/28 09:18:02;;;;;;;7.88;1.95;;;21.00;95.20;;;;;;5117346;27;45648;-66
2023/06/28 09:20:29;;;;;;;7.15;1.85;;;20.90;95.30;;;;;;5105916;27;48134;-66
2023/06/28 09:22:59;;;;;;;6.78;1.40;;;20.90;95.40;;;;;;5111662;27;45286;-65
2023/06/28 09:25:27;;;;;;;6.35;1.67;;;21.00;96.20;;;;;;5113826;27;45441;-66
2023/06/28 09:27:55;;;;;;;3.95;1.40;;;21.10;95.50;;;;;;5117042;27;45259;-66
2023/06/28 09:30:22;;;;;;;6.30;1.50;;;21.10;94.80;;;;;;5106821;27;45417;-67
2023/06/28 09:32:51;;;;;;;6.80;1.63;;;21.10;94.50;;;;;;5124901;27;45443;-65
2023/06/28 09:35:18;;;;;;;3.08;1.15;;;21.20;94.50;;;;;;5122159;27;45351;-66
2023/06/28 09:37:50;;;;;;;4.25;1.40;;;21.30;95.40;;;;;;5110817;27;45341;-66
2023/06/28 09:40:19;;;;;;;11.75;1.40;;;21.50;94.60;;;;;;5109812;27;45466;-65
2023/06/28 09:42:46;;;;;;;9.52;1.50;;;21.60;94.50;;;;;;5124589;27;46490;-65
2023/06/28 09:45:25;;;;;;;8.43;1.70;;;21.60;94.40;;;;;;5123820;27;45351;-65
2023/06/28 09:47:56;;;;;;;6.55;1.77;;;21.60;93.60;;;;;;5124244;27;45414;-66
2023/06/28 09:50:34;;;;;;;5.35;1.42;;;21.60;93.60;;;;;;5111974;27;45306;-65
2023/06/28 09:53:01;;;;;;;6.82;1.90;;;21.70;94.30;;;;;;5108253;27;45298;-66
2023/06/28 09:55:29;;;;;;;4.95;1.42;;;21.70;93.60;;;;;;5111154;27;45408;-66
2023/06/28 09:57:57;;;;;;;6.05;1.30;;;21.70;94.70;;;;;;5111764;27;45206;-66
2023/06/28 10:00:26;;;;;;;5.93;1.52;;;21.70;93.60;;;;;;5112929;27;46060;-66
2023/06/28 10:02:53;;;;;;;4.35;1.42;;;21.70;94.00;;;;;;5109065;27;45608;-66
2023/06/28 10:05:20;;;;;;;5.38;1.60;;;21.60;95.10;;;;;;5115927;27;45347;-65
2023/06/28 10:07:48;;;;;;;5.82;1.58;;;21.60;94.20;;;;;;5120328;27;45603;-67
2023/06/28 10:10:17;;;;;;;7.40;1.58;;;21.60;94.60;;;;;;5116261;27;46290;-66
2023/06/28 10:12:46;;;;;;;6.72;1.45;;;21.60;93.50;;;;;;5104543;27;45437;-66
2023/06/28 10:15:22;;;;;;;4.63;1.40;;;21.60;93.40;;;;;;5119861;27;45400;-66
2023/06/28 10:17:49;;;;;;;8.23;2.10;;;21.60;93.90;;;;;;5118369;27;45348;-67
2023/06/28 10:20:16;;;;;;;6.32;1.67;;;21.60;93.00;;;;;;5113038;27;47615;-65
2023/06/28 10:22:44;;;;;;;4.57;1.45;;;21.60;93.20;;;;;;5117296;27;45734;-67
2023/06/28 10:25:11;;;;;;;7.13;1.60;;;21.50;93.70;;;;;;5123292;27;45235;-66
2023/06/28 10:27:38;;;;;;;5.50;1.65;;;21.60;93.20;;;;;;5115090;27;45610;-66
2023/06/28 10:30:08;;;;;;;6.78;1.73;;;21.60;92.40;;;;;;5121428;27;46075;-65
2023/06/28 10:32:35;;;;;;;5.50;1.60;;;21.70;92.70;;;;;;5123039;27;45223;-66
2023/06/28 10:35:04;;;;;;;5.63;1.67;;;21.70;92.40;;;;;;5123581;27;45395;-65
2023/06/28 10:37:30;;;;;;;9.55;1.70;;;21.70;92.80;;;;;;5124099;27;45306;-66
2023/06/28 10:39:57;;;;;;;4.40;1.58;;;21.80;92.60;;;;;;5123280;27;46361;-66
2023/06/28 10:42:24;;;;;;;5.82;2.10;;;21.80;93.10;;;;;;5117509;27;45355;-66
2023/06/28 10:44:52;;;;;;;5.35;1.90;;;21.80;92.70;;;;;;5121916;27;45370;-66
2023/06/28 10:47:21;;;;;;;8.05;2.38;;;21.80;92.70;;;;;;5120461;27;45561;-66
2023/06/28 10:50:06;;;;;;;3.25;1.30;;;21.90;92.00;;;;;;5107029;27;48046;-67
2023/06/28 10:52:32;;;;;;;9.20;2.08;;;21.90;91.80;;;;;;5120062;27;45375;-65
2023/06/28 10:55:01;;;;;;;7.50;1.80;;;21.90;92.40;;;;;;5103395;27;45404;-66
2023/06/28 10:57:36;;;;;;;4.95;1.60;;;22.00;92.00;;;;;;5109684;27;45373;-66
2023/06/28 11:00:07;;;;;;;6.22;1.80;;;22.00;92.60;;;;;;5111631;27;46079;-64
2023/06/28 11:02:54;;;;;;;13.77;2.17;;;22.10;92.30;;;;;;5119555;27;45401;-66
2023/06/28 11:05:41;;;;;;;5.40;1.38;;;22.10;91.60;;;;;;5108307;27;45447;-68
2023/06/28 11:08:12;;;;;;;4.65;1.30;;;22.20;91.70;;;;;;5120063;27;45530;-67
2023/06/28 11:10:40;;;;;;;9.35;1.70;;;22.20;91.10;;;;;;5117919;27;46598;-66
2023/06/28 11:13:11;;;;;;;9.13;2.10;;;22.30;91.60;;;;;;5112961;27;45465;-66
2023/06/28 11:15:44;;;;;;;4.68;1.58;;;22.20;91.10;;;;;;5123563;27;45505;-68
2023/06/28 11:18:18;;;;;;;4.60;1.95;;;22.20;91.50;;;;;;5117284;27;45510;-67
2023/06/28 11:20:52;;;;;;;5.35;1.55;;;22.30;91.00;;;;;;5113449;27;47459;-67
2023/06/28 11:23:29;;;;;;;7.57;2.03;;;22.30;91.00;;;;;;5112586;27;45517;-66
2023/06/28 11:25:58;;;;;;;6.50;1.90;;;22.30;91.40;;;;;;5111281;27;45360;-68
2023/06/28 11:28:28;;;;;;;7.00;1.80;;;22.40;91.80;;;;;;5124163;27;45292;-67
2023/06/28 11:30:56;;;;;;;9.45;1.90;;;22.40;91.20;;;;;;5121293;27;48198;-66
2023/06/28 11:33:24;;;;;;;11.88;2.05;;;22.50;91.00;;;;;;5118455;27;45272;-66
2023/06/28 11:35:52;;;;;;;4.10;1.52;;;22.40;90.50;;;;;;5116803;27;45278;-66
2023/06/28 11:38:20;;;;;;;3.65;1.50;;;22.50;91.40;;;;;;5123459;27;45428;-69
2023/06/28 11:40:47;;;;;;;5.10;1.70;;;22.50;91.00;;;;;;5118791;27;45434;-66
2023/06/28 11:43:14;;;;;;;6.40;1.95;;;22.50;91.80;;;;;;5125332;27;45267;-66
2023/06/28 11:45:41;;;;;;;6.90;1.92;;;22.50;90.30;;;;;;5117094;27;45331;-66
2023/06/28 11:48:10;;;;;;;3.28;1.23;;;22.50;90.80;;;;;;5124008;27;45411;-66
2023/06/28 11:50:40;;;;;;;14.50;2.50;;;22.50;92.20;;;;;;5114850;27;48689;-66
2023/06/28 11:53:07;;;;;;;7.35;1.85;;;22.50;89.80;;;;;;5117355;27;45464;-67
2023/06/28 11:55:33;;;;;;;5.40;1.60;;;22.20;90.70;;;;;;5115833;27;45503;-66
2023/06/28 11:58:00;;;;;;;3.83;1.58;;;22.30;91.80;;;;;;5117324;27;45421;-66
2023/06/28 12:00:38;;;;;;;4.63;2.20;;;22.40;92.80;;;;;;5106706;27;47472;-66
2023/06/28 12:03:05;;;;;;;7.85;2.15;;;22.40;90.20;;;;;;5104328;27;45511;-66
2023/06/28 12:05:32;;;;;;;5.93;2.10;;;22.30;90.90;;;;;;5108819;27;45410;-66
2023/06/28 12:08:00;;;;;;;5.70;2.10;;;22.30;91.30;;;;;;5116982;27;45524;-66
2023/06/28 12:10:35;;;;;;;9.23;2.22;;;22.40;92.50;;;;;;5125434;27;48553;-67
2023/06/28 12:13:02;;;;;;;7.72;2.17;;;22.50;90.20;;;;;;5115210;27;45412;-66
2023/06/28 12:15:29;;;;;;;11.50;2.70;;;22.60;90.70;;;;;;5107251;27;45489;-66
2023/06/28 12:17:56;;;;;;;9.30;2.13;;;22.50;89.10;;;;;;5124041;27;45427;-66
2023/06/28 12:20:23;;;;;;;4.75;2.30;;;22.50;91.10;;;;;;5117250;27;45467;-66
2023/06/28 12:22:50;;;;;;;6.97;1.77;;;22.60;91.20;;;;;;5114060;27;45308;-66
2023/06/28 12:25:26;;;;;;;6.47;1.90;;;22.60;90.70;;;;;;5121150;27;45328;-67
2023/06/28 12:28:02;;;;;;;9.27;2.35;;;22.70;90.40;;;;;;5125247;27;45460;-66
2023/06/28 12:30:29;;;;;;;8.57;2.63;;;22.70;90.10;;;;;;5125701;27;45318;-66
2023/06/28 12:32:58;;;;;;;11.52;2.45;;;22.60;90.10;;;;;;5126132;27;45424;-68
2023/06/28 12:35:27;;;;;;;5.45;1.73;;;22.60;91.50;;;;;;5108476;27;45355;-67
2023/06/28 12:37:55;;;;;;;9.55;2.60;;;22.60;92.10;;;;;;5118074;27;45397;-66
2023/06/28 12:40:24;;;;;;;10.13;2.45;;;22.60;90.00;;;;;;5118579;27;46572;-66
2023/06/28 12:43:11;;;;;;;7.25;2.28;;;22.50;89.80;;;;;;5104879;27;45399;-67
2023/06/28 12:45:45;;;;;;;7.15;2.17;;;22.40;90.10;;;;;;5123015;27;45391;-66
2023/06/28 12:48:13;;;;;;;7.40;2.65;;;22.50;91.00;;;;;;5122720;27;45735;-66